sensor_id;sensor_type;location;lat;lon;timestamp;temperature;humidity
67557;DHT22;54387;53.526;49.300;2023-04-03T00:01:31;5.00;57.60
67557;DHT22;54387;53.526;49.300;2023-04-03T00:03:57;4.90;57.70
67557;DHT22;54387;53.526;49.300;2023-04-03T00:06:24;4.90;57.70
67557;DHT22;54387;53.526;49.300;2023-04-03T00:08:50;4.80;57.70
67557;DHT22;54387;53.526;49.300;2023-04-03T00:11:16;4.70;58.10
67557;DHT22;54387;53.526;49.300;2023-04-03T00:13:43;4.60;58.30
67557;DHT22;54387;53.526;49.300;2023-04-03T00:16:09;4.60;58.30
67557;DHT22;54387;53.526;49.300;2023-04-03T00:18:36;4.50;58.30
67557;DHT22;54387;53.526;49.300;2023-04-03T00:21:02;4.50;58.50
67557;DHT22;54387;53.526;49.300;2023-04-03T00:23:28;4.40;58.80
67557;DHT22;54387;53.526;49.300;2023-04-03T00:25:54;4.30;58.80
67557;DHT22;54387;53.526;49.300;2023-04-03T00:28:21;4.30;58.80
67557;DHT22;54387;53.526;49.300;2023-04-03T00:30:50;4.30;59.10
67557;DHT22;54387;53.526;49.300;2023-04-03T00:33:16;4.30;59.20
67557;DHT22;54387;53.526;49.300;2023-04-03T00:35:42;4.20;59.30
67557;DHT22;54387;53.526;49.300;2023-04-03T00:38:08;4.30;59.50
67557;DHT22;54387;53.526;49.300;2023-04-03T00:40:39;4.30;59.40
67557;DHT22;54387;53.526;49.300;2023-04-03T00:43:11;4.30;59.40
67557;DHT22;54387;53.526;49.300;2023-04-03T00:45:42;4.40;59.50
67557;DHT22;54387;53.526;49.300;2023-04-03T00:48:09;4.40;59.30
67557;DHT22;54387;53.526;49.300;2023-04-03T00:50:38;4.40;59.30
67557;DHT22;54387;53.526;49.300;2023-04-03T00:53:06;4.50;59.40
67557;DHT22;54387;53.526;49.300;2023-04-03T00:55:34;4.50;59.30
67557;DHT22;54387;53.526;49.300;2023-04-03T00:58:01;4.50;59.00
67557;DHT22;54387;53.526;49.300;2023-04-03T01:00:27;4.60;60.00
67557;DHT22;54387;53.526;49.300;2023-04-03T01:02:53;4.60;59.00
67557;DHT22;54387;53.526;49.300;2023-04-03T01:05:20;4.60;58.80
67557;DHT22;54387;53.526;49.300;2023-04-03T01:07:46;4.60;58.70
67557;DHT22;54387;53.526;49.300;2023-04-03T01:10:14;4.60;58.60
67557;DHT22;54387;53.526;49.300;2023-04-03T01:12:42;4.60;58.60
67557;DHT22;54387;53.526;49.300;2023-04-03T01:17:39;4.50;58.70
67557;DHT22;54387;53.526;49.300;2023-04-03T01:22:59;4.40;58.80
67557;DHT22;54387;53.526;49.300;2023-04-03T01:25:31;4.30;58.80
67557;DHT22;54387;53.526;49.300;2023-04-03T01:27:58;4.30;58.80
67557;DHT22;54387;53.526;49.300;2023-04-03T01:30:25;4.30;59.20
67557;DHT22;54387;53.526;49.300;2023-04-03T01:32:53;4.20;59.20
67557;DHT22;54387;53.526;49.300;2023-04-03T01:35:19;4.20;59.20
67557;DHT22;54387;53.526;49.300;2023-04-03T01:37:45;4.20;59.20
67557;DHT22;54387;53.526;49.300;2023-04-03T01:40:11;4.10;59.30
67557;DHT22;54387;53.526;49.300;2023-04-03T01:42:37;4.10;59.20
67557;DHT22;54387;53.526;49.300;2023-04-03T01:45:04;4.10;59.20
67557;DHT22;54387;53.526;49.300;2023-04-03T01:47:30;4.10;59.20
67557;DHT22;54387;53.526;49.300;2023-04-03T01:49:56;4.10;59.20
67557;DHT22;54387;53.526;49.300;2023-04-03T01:52:22;4.10;59.30
67557;DHT22;54387;53.526;49.300;2023-04-03T01:54:48;4.10;59.30
67557;DHT22;54387;53.526;49.300;2023-04-03T01:57:15;4.10;59.20
67557;DHT22;54387;53.526;49.300;2023-04-03T01:59:41;4.00;59.20
67557;DHT22;54387;53.526;49.300;2023-04-03T02:02:08;4.00;59.30
67557;DHT22;54387;53.526;49.300;2023-04-03T02:04:34;4.00;59.30
67557;DHT22;54387;53.526;49.300;2023-04-03T02:07:00;3.90;59.20
67557;DHT22;54387;53.526;49.300;2023-04-03T02:09:26;3.90;59.40
67557;DHT22;54387;53.526;49.300;2023-04-03T02:11:53;3.90;59.40
67557;DHT22;54387;53.526;49.300;2023-04-03T02:14:19;3.80;59.40
67557;DHT22;54387;53.526;49.300;2023-04-03T02:16:46;3.80;59.60
67557;DHT22;54387;53.526;49.300;2023-04-03T02:19:12;3.80;59.70
67557;DHT22;54387;53.526;49.300;2023-04-03T02:21:38;3.80;59.70
67557;DHT22;54387;53.526;49.300;2023-04-03T02:24:04;3.80;59.70
67557;DHT22;54387;53.526;49.300;2023-04-03T02:26:31;3.80;59.70
67557;DHT22;54387;53.526;49.300;2023-04-03T02:28:57;3.80;59.70
67557;DHT22;54387;53.526;49.300;2023-04-03T02:31:23;3.80;60.00
67557;DHT22;54387;53.526;49.300;2023-04-03T02:33:49;3.80;59.90
67557;DHT22;54387;53.526;49.300;2023-04-03T02:36:16;3.80;59.90
67557;DHT22;54387;53.526;49.300;2023-04-03T02:38:42;3.70;59.90
67557;DHT22;54387;53.526;49.300;2023-04-03T02:41:10;3.80;60.00
67557;DHT22;54387;53.526;49.300;2023-04-03T02:43:36;3.80;60.00
67557;DHT22;54387;53.526;49.300;2023-04-03T02:46:02;3.70;59.90
67557;DHT22;54387;53.526;49.300;2023-04-03T02:48:29;3.80;60.00
67557;DHT22;54387;53.526;49.300;2023-04-03T02:50:55;3.80;60.00
67557;DHT22;54387;53.526;49.300;2023-04-03T02:53:21;3.80;60.00
67557;DHT22;54387;53.526;49.300;2023-04-03T02:55:48;3.80;60.00
67557;DHT22;54387;53.526;49.300;2023-04-03T02:58:15;3.80;60.00
67557;DHT22;54387;53.526;49.300;2023-04-03T03:00:41;3.80;60.00
67557;DHT22;54387;53.526;49.300;2023-04-03T03:03:07;3.80;60.00
67557;DHT22;54387;53.526;49.300;2023-04-03T03:05:33;3.80;60.00
67557;DHT22;54387;53.526;49.300;2023-04-03T03:08:00;3.90;60.00
67557;DHT22;54387;53.526;49.300;2023-04-03T03:10:26;3.90;60.00
67557;DHT22;54387;53.526;49.300;2023-04-03T03:12:52;4.00;60.00
67557;DHT22;54387;53.526;49.300;2023-04-03T03:15:18;4.10;60.00
67557;DHT22;54387;53.526;49.300;2023-04-03T03:17:45;4.20;60.00
67557;DHT22;54387;53.526;49.300;2023-04-03T03:20:11;4.30;59.90
67557;DHT22;54387;53.526;49.300;2023-04-03T03:22:39;4.40;59.80
67557;DHT22;54387;53.526;49.300;2023-04-03T03:25:06;4.40;59.60
67557;DHT22;54387;53.526;49.300;2023-04-03T03:27:32;4.60;59.50
67557;DHT22;54387;53.526;49.300;2023-04-03T03:29:58;4.60;59.30
67557;DHT22;54387;53.526;49.300;2023-04-03T03:32:25;4.70;59.10
67557;DHT22;54387;53.526;49.300;2023-04-03T03:34:51;4.90;59.10
67557;DHT22;54387;53.526;49.300;2023-04-03T03:37:17;5.00;59.10
67557;DHT22;54387;53.526;49.300;2023-04-03T03:39:44;5.30;59.00
67557;DHT22;54387;53.526;49.300;2023-04-03T03:42:10;5.50;58.60
67557;DHT22;54387;53.526;49.300;2023-04-03T03:44:37;5.70;58.20
67557;DHT22;54387;53.526;49.300;2023-04-03T03:47:03;5.80;57.60
67557;DHT22;54387;53.526;49.300;2023-04-03T03:49:31;5.90;57.30
67557;DHT22;54387;53.526;49.300;2023-04-03T03:51:58;5.90;56.70
67557;DHT22;54387;53.526;49.300;2023-04-03T03:54:24;6.00;56.30
67557;DHT22;54387;53.526;49.300;2023-04-03T03:56:50;6.00;56.20
67557;DHT22;54387;53.526;49.300;2023-04-03T03:59:17;6.10;55.90
67557;DHT22;54387;53.526;49.300;2023-04-03T04:01:43;6.10;55.60
67557;DHT22;54387;53.526;49.300;2023-04-03T04:04:09;6.20;55.60
67557;DHT22;54387;53.526;49.300;2023-04-03T04:06:35;6.20;55.40
67557;DHT22;54387;53.526;49.300;2023-04-03T04:09:02;6.30;55.20
67557;DHT22;54387;53.526;49.300;2023-04-03T04:11:28;6.40;55.10
67557;DHT22;54387;53.526;49.300;2023-04-03T04:13:54;6.50;54.80
67557;DHT22;54387;53.526;49.300;2023-04-03T04:16:20;6.60;54.60
67557;DHT22;54387;53.526;49.300;2023-04-03T04:18:46;6.60;54.30
67557;DHT22;54387;53.526;49.300;2023-04-03T04:21:13;6.80;53.90
67557;DHT22;54387;53.526;49.300;2023-04-03T04:23:39;6.90;53.70
67557;DHT22;54387;53.526;49.300;2023-04-03T04:26:05;6.90;53.00
67557;DHT22;54387;53.526;49.300;2023-04-03T04:28:31;7.10;53.00
67557;DHT22;54387;53.526;49.300;2023-04-03T04:30:57;7.20;52.50
67557;DHT22;54387;53.526;49.300;2023-04-03T04:33:24;7.20;52.20
67557;DHT22;54387;53.526;49.300;2023-04-03T04:35:50;7.30;52.10
67557;DHT22;54387;53.526;49.300;2023-04-03T04:38:17;7.40;51.90
67557;DHT22;54387;53.526;49.300;2023-04-03T04:40:43;7.50;51.70
67557;DHT22;54387;53.526;49.300;2023-04-03T04:43:12;7.60;51.20
67557;DHT22;54387;53.526;49.300;2023-04-03T04:45:40;7.80;51.20
67557;DHT22;54387;53.526;49.300;2023-04-03T04:48:07;7.90;51.10
67557;DHT22;54387;53.526;49.300;2023-04-03T04:50:33;7.90;50.90
67557;DHT22;54387;53.526;49.300;2023-04-03T04:52:59;8.00;50.40
67557;DHT22;54387;53.526;49.300;2023-04-03T04:55:26;8.20;50.00
67557;DHT22;54387;53.526;49.300;2023-04-03T04:57:52;8.30;49.30
67557;DHT22;54387;53.526;49.300;2023-04-03T05:00:19;8.40;48.80
67557;DHT22;54387;53.526;49.300;2023-04-03T05:02:46;8.50;48.70
67557;DHT22;54387;53.526;49.300;2023-04-03T05:05:12;8.60;48.40
67557;DHT22;54387;53.526;49.300;2023-04-03T05:07:38;8.70;48.10
67557;DHT22;54387;53.526;49.300;2023-04-03T05:10:05;8.80;48.00
67557;DHT22;54387;53.526;49.300;2023-04-03T05:12:31;8.90;48.30
67557;DHT22;54387;53.526;49.300;2023-04-03T05:14:58;9.00;47.30
67557;DHT22;54387;53.526;49.300;2023-04-03T05:17:24;9.10;46.90
67557;DHT22;54387;53.526;49.300;2023-04-03T05:19:50;9.20;46.40
67557;DHT22;54387;53.526;49.300;2023-04-03T05:22:16;9.20;45.50
67557;DHT22;54387;53.526;49.300;2023-04-03T05:24:42;9.30;45.30
67557;DHT22;54387;53.526;49.300;2023-04-03T05:27:09;9.40;45.50
67557;DHT22;54387;53.526;49.300;2023-04-03T05:29:35;9.50;45.30
67557;DHT22;54387;53.526;49.300;2023-04-03T05:32:01;9.60;45.40
67557;DHT22;54387;53.526;49.300;2023-04-03T05:34:27;9.70;44.90
67557;DHT22;54387;53.526;49.300;2023-04-03T05:36:54;9.80;44.40
67557;DHT22;54387;53.526;49.300;2023-04-03T05:39:20;9.80;44.10
67557;DHT22;54387;53.526;49.300;2023-04-03T05:41:48;9.90;44.10
67557;DHT22;54387;53.526;49.300;2023-04-03T05:44:14;10.00;43.80
67557;DHT22;54387;53.526;49.300;2023-04-03T05:46:40;10.10;43.60
67557;DHT22;54387;53.526;49.300;2023-04-03T05:49:07;10.20;43.00
67557;DHT22;54387;53.526;49.300;2023-04-03T05:51:35;10.30;43.20
67557;DHT22;54387;53.526;49.300;2023-04-03T05:54:21;10.30;42.80
67557;DHT22;54387;53.526;49.300;2023-04-03T05:56:51;10.40;42.80
67557;DHT22;54387;53.526;49.300;2023-04-03T05:59:18;10.50;42.40
67557;DHT22;54387;53.526;49.300;2023-04-03T06:01:44;10.60;42.20
67557;DHT22;54387;53.526;49.300;2023-04-03T06:04:10;10.70;41.70
67557;DHT22;54387;53.526;49.300;2023-04-03T06:06:43;10.70;41.40
67557;DHT22;54387;53.526;49.300;2023-04-03T06:09:10;10.80;41.10
67557;DHT22;54387;53.526;49.300;2023-04-03T06:11:36;10.90;41.20
67557;DHT22;54387;53.526;49.300;2023-04-03T06:14:02;10.90;41.10
67557;DHT22;54387;53.526;49.300;2023-04-03T06:16:28;11.00;40.70
67557;DHT22;54387;53.526;49.300;2023-04-03T06:18:54;11.10;40.70
67557;DHT22;54387;53.526;49.300;2023-04-03T06:21:21;11.20;40.70
67557;DHT22;54387;53.526;49.300;2023-04-03T06:23:47;11.30;40.60
67557;DHT22;54387;53.526;49.300;2023-04-03T06:26:13;11.40;40.10
67557;DHT22;54387;53.526;49.300;2023-04-03T06:28:39;11.60;39.50
67557;DHT22;54387;53.526;49.300;2023-04-03T06:31:05;11.60;38.40
67557;DHT22;54387;53.526;49.300;2023-04-03T06:33:31;11.70;38.30
67557;DHT22;54387;53.526;49.300;2023-04-03T06:35:57;11.80;38.00
67557;DHT22;54387;53.526;49.300;2023-04-03T06:38:24;11.90;37.50
67557;DHT22;54387;53.526;49.300;2023-04-03T06:40:51;12.00;37.30
67557;DHT22;54387;53.526;49.300;2023-04-03T06:43:17;12.10;36.40
67557;DHT22;54387;53.526;49.300;2023-04-03T06:45:43;12.20;36.10
67557;DHT22;54387;53.526;49.300;2023-04-03T06:48:09;12.20;35.80
67557;DHT22;54387;53.526;49.300;2023-04-03T06:50:35;12.30;36.30
67557;DHT22;54387;53.526;49.300;2023-04-03T06:53:02;12.40;35.00
67557;DHT22;54387;53.526;49.300;2023-04-03T06:55:29;12.50;34.90
67557;DHT22;54387;53.526;49.300;2023-04-03T06:57:56;12.60;34.50
67557;DHT22;54387;53.526;49.300;2023-04-03T07:00:22;12.70;34.40
67557;DHT22;54387;53.526;49.300;2023-04-03T07:02:49;12.80;33.90
67557;DHT22;54387;53.526;49.300;2023-04-03T07:05:15;12.90;32.40
67557;DHT22;54387;53.526;49.300;2023-04-03T07:07:41;13.00;33.10
67557;DHT22;54387;53.526;49.300;2023-04-03T07:10:08;13.00;32.40
67557;DHT22;54387;53.526;49.300;2023-04-03T07:12:34;13.10;32.10
67557;DHT22;54387;53.526;49.300;2023-04-03T07:15:00;13.20;32.00
67557;DHT22;54387;53.526;49.300;2023-04-03T07:17:27;13.30;32.20
67557;DHT22;54387;53.526;49.300;2023-04-03T07:19:53;13.40;32.10
67557;DHT22;54387;53.526;49.300;2023-04-03T07:22:19;13.40;30.70
67557;DHT22;54387;53.526;49.300;2023-04-03T07:24:46;13.50;30.00
67557;DHT22;54387;53.526;49.300;2023-04-03T07:27:12;13.60;30.00
67557;DHT22;54387;53.526;49.300;2023-04-03T07:29:38;13.70;30.10
67557;DHT22;54387;53.526;49.300;2023-04-03T07:32:05;13.80;30.30
67557;DHT22;54387;53.526;49.300;2023-04-03T07:34:33;13.90;29.90
67557;DHT22;54387;53.526;49.300;2023-04-03T07:37:00;14.00;29.50
67557;DHT22;54387;53.526;49.300;2023-04-03T07:39:27;14.10;29.10
67557;DHT22;54387;53.526;49.300;2023-04-03T07:41:54;14.10;28.80
67557;DHT22;54387;53.526;49.300;2023-04-03T07:44:22;14.20;29.10
67557;DHT22;54387;53.526;49.300;2023-04-03T07:46:48;14.30;28.60
67557;DHT22;54387;53.526;49.300;2023-04-03T07:49:14;14.30;29.40
67557;DHT22;54387;53.526;49.300;2023-04-03T07:51:40;14.30;29.60
67557;DHT22;54387;53.526;49.300;2023-04-03T07:54:07;14.30;30.00
67557;DHT22;54387;53.526;49.300;2023-04-03T07:56:33;14.40;30.20
67557;DHT22;54387;53.526;49.300;2023-04-03T07:59:00;14.40;30.70
67557;DHT22;54387;53.526;49.300;2023-04-03T08:01:26;14.40;31.20
67557;DHT22;54387;53.526;49.300;2023-04-03T08:03:53;14.40;31.10
67557;DHT22;54387;53.526;49.300;2023-04-03T08:06:19;14.40;31.40
67557;DHT22;54387;53.526;49.300;2023-04-03T08:08:46;14.50;31.10
67557;DHT22;54387;53.526;49.300;2023-04-03T08:11:12;14.50;31.10
67557;DHT22;54387;53.526;49.300;2023-04-03T08:13:38;14.50;31.00
67557;DHT22;54387;53.526;49.300;2023-04-03T08:16:16;14.50;30.70
67557;DHT22;54387;53.526;49.300;2023-04-03T08:18:42;14.50;30.30
67557;DHT22;54387;53.526;49.300;2023-04-03T08:21:09;14.40;30.20
67557;DHT22;54387;53.526;49.300;2023-04-03T08:23:36;14.40;30.40
67557;DHT22;54387;53.526;49.300;2023-04-03T08:26:06;14.40;30.90
67557;DHT22;54387;53.526;49.300;2023-04-03T08:28:32;14.40;30.50
67557;DHT22;54387;53.526;49.300;2023-04-03T08:31:02;14.50;30.30
67557;DHT22;54387;53.526;49.300;2023-04-03T08:33:28;14.50;30.40
67557;DHT22;54387;53.526;49.300;2023-04-03T08:35:54;14.50;30.40
67557;DHT22;54387;53.526;49.300;2023-04-03T08:38:20;14.60;30.30
67557;DHT22;54387;53.526;49.300;2023-04-03T08:40:47;14.60;30.40
67557;DHT22;54387;53.526;49.300;2023-04-03T08:45:57;14.60;30.40
67557;DHT22;54387;53.526;49.300;2023-04-03T08:48:27;14.70;30.40
67557;DHT22;54387;53.526;49.300;2023-04-03T08:50:56;14.80;30.30
67557;DHT22;54387;53.526;49.300;2023-04-03T08:53:28;14.90;29.80
67557;DHT22;54387;53.526;49.300;2023-04-03T08:55:56;15.00;29.60
67557;DHT22;54387;53.526;49.300;2023-04-03T08:58:28;15.10;29.50
67557;DHT22;54387;53.526;49.300;2023-04-03T09:01:16;15.20;28.90
67557;DHT22;54387;53.526;49.300;2023-04-03T09:03:43;15.30;29.00
67557;DHT22;54387;53.526;49.300;2023-04-03T09:06:28;15.40;28.60
67557;DHT22;54387;53.526;49.300;2023-04-03T09:14:33;15.70;27.60
67557;DHT22;54387;53.526;49.300;2023-04-03T09:17:26;15.80;26.90
67557;DHT22;54387;53.526;49.300;2023-04-03T09:22:41;16.20;27.20
67557;DHT22;54387;53.526;49.300;2023-04-03T09:25:25;16.40;26.30
67557;DHT22;54387;53.526;49.300;2023-04-03T09:27:52;16.70;26.30
67557;DHT22;54387;53.526;49.300;2023-04-03T09:30:22;17.30;26.80
67557;DHT22;54387;53.526;49.300;2023-04-03T09:32:50;18.30;26.70
67557;DHT22;54387;53.526;49.300;2023-04-03T09:35:19;19.50;26.70
67557;DHT22;54387;53.526;49.300;2023-04-03T09:37:47;21.20;26.10
67557;DHT22;54387;53.526;49.300;2023-04-03T09:40:33;23.10;23.50
67557;DHT22;54387;53.526;49.300;2023-04-03T09:45:43;25.90;20.00
67557;DHT22;54387;53.526;49.300;2023-04-03T09:55:54;28.90;17.60
67557;DHT22;54387;53.526;49.300;2023-04-03T09:58:31;28.90;17.80
67557;DHT22;54387;53.526;49.300;2023-04-03T10:01:01;29.40;18.00
67557;DHT22;54387;53.526;49.300;2023-04-03T10:03:34;30.40;18.30
67557;DHT22;54387;53.526;49.300;2023-04-03T10:06:02;31.50;16.80
67557;DHT22;54387;53.526;49.300;2023-04-03T10:08:30;32.60;16.20
67557;DHT22;54387;53.526;49.300;2023-04-03T10:11:07;33.10;15.60
67557;DHT22;54387;53.526;49.300;2023-04-03T10:13:33;34.10;16.20
67557;DHT22;54387;53.526;49.300;2023-04-03T10:16:03;35.20;15.50
67557;DHT22;54387;53.526;49.300;2023-04-03T10:18:33;35.90;16.20
67557;DHT22;54387;53.526;49.300;2023-04-03T10:21:13;37.10;16.60
67557;DHT22;54387;53.526;49.300;2023-04-03T10:23:44;37.80;16.10
67557;DHT22;54387;53.526;49.300;2023-04-03T10:26:29;37.90;15.60
67557;DHT22;54387;53.526;49.300;2023-04-03T10:31:45;37.40;15.40
67557;DHT22;54387;53.526;49.300;2023-04-03T10:34:21;37.10;15.10
67557;DHT22;54387;53.526;49.300;2023-04-03T10:36:52;37.00;15.40
67557;DHT22;54387;53.526;49.300;2023-04-03T10:44:52;37.40;14.70
67557;DHT22;54387;53.526;49.300;2023-04-03T10:47:26;36.90;13.90
67557;DHT22;54387;53.526;49.300;2023-04-03T10:49:56;36.10;14.20
67557;DHT22;54387;53.526;49.300;2023-04-03T10:57:37;36.10;14.00
67557;DHT22;54387;53.526;49.300;2023-04-03T11:00:05;36.00;13.70
67557;DHT22;54387;53.526;49.300;2023-04-03T11:02:45;36.10;14.40
67557;DHT22;54387;53.526;49.300;2023-04-03T11:05:25;36.00;14.30
67557;DHT22;54387;53.526;49.300;2023-04-03T11:07:52;36.00;14.60
67557;DHT22;54387;53.526;49.300;2023-04-03T11:10:23;36.10;14.50
67557;DHT22;54387;53.526;49.300;2023-04-03T11:12:52;35.90;14.70
67557;DHT22;54387;53.526;49.300;2023-04-03T11:15:20;35.00;13.20
67557;DHT22;54387;53.526;49.300;2023-04-03T11:17:50;33.50;13.90
67557;DHT22;54387;53.526;49.300;2023-04-03T11:20:20;32.80;14.20
67557;DHT22;54387;53.526;49.300;2023-04-03T11:22:56;32.10;14.50
67557;DHT22;54387;53.526;49.300;2023-04-03T11:25:24;31.70;14.70
67557;DHT22;54387;53.526;49.300;2023-04-03T11:27:59;31.30;14.40
67557;DHT22;54387;53.526;49.300;2023-04-03T11:30:28;31.10;14.50
67557;DHT22;54387;53.526;49.300;2023-04-03T11:33:14;30.40;14.20
67557;DHT22;54387;53.526;49.300;2023-04-03T11:35:47;29.70;14.60
67557;DHT22;54387;53.526;49.300;2023-04-03T11:38:17;29.00;14.80
67557;DHT22;54387;53.526;49.300;2023-04-03T11:40:44;28.40;15.00
67557;DHT22;54387;53.526;49.300;2023-04-03T11:43:21;27.80;15.00
67557;DHT22;54387;53.526;49.300;2023-04-03T11:51:44;26.20;15.40
67557;DHT22;54387;53.526;49.300;2023-04-03T11:53:47;25.70;15.50
67557;DHT22;54387;53.526;49.300;2023-04-03T12:04:16;26.10;16.00
67557;DHT22;54387;53.526;49.300;2023-04-03T12:09:27;25.60;16.00
67557;DHT22;54387;53.526;49.300;2023-04-03T12:11:54;25.30;16.30
67557;DHT22;54387;53.526;49.300;2023-04-03T12:14:24;25.30;16.40
67557;DHT22;54387;53.526;49.300;2023-04-03T12:16:54;25.70;16.50
67557;DHT22;54387;53.526;49.300;2023-04-03T12:19:33;26.10;16.50
67557;DHT22;54387;53.526;49.300;2023-04-03T12:24:28;25.70;16.20
67557;DHT22;54387;53.526;49.300;2023-04-03T12:37:21;23.30;17.50
67557;DHT22;54387;53.526;49.300;2023-04-03T12:39:59;23.30;17.70
67557;DHT22;54387;53.526;49.300;2023-04-03T12:42:51;23.60;17.70
67557;DHT22;54387;53.526;49.300;2023-04-03T12:45:19;23.80;17.60
67557;DHT22;54387;53.526;49.300;2023-04-03T12:47:48;23.90;17.70
67557;DHT22;54387;53.526;49.300;2023-04-03T12:50:30;24.00;17.80
67557;DHT22;54387;53.526;49.300;2023-04-03T12:55:25;24.90;17.50
67557;DHT22;54387;53.526;49.300;2023-04-03T12:57:52;25.30;17.50
67557;DHT22;54387;53.526;49.300;2023-04-03T13:00:32;25.70;17.40
67557;DHT22;54387;53.526;49.300;2023-04-03T13:03:00;26.00;17.30
67557;DHT22;54387;53.526;49.300;2023-04-03T13:05:27;26.30;17.40
67557;DHT22;54387;53.526;49.300;2023-04-03T13:07:56;26.20;17.10
67557;DHT22;54387;53.526;49.300;2023-04-03T13:10:23;26.00;17.00
67557;DHT22;54387;53.526;49.300;2023-04-03T13:17:43;25.50;17.10
67557;DHT22;54387;53.526;49.300;2023-04-03T13:20:11;25.40;17.20
67557;DHT22;54387;53.526;49.300;2023-04-03T13:22:51;25.30;17.20
67557;DHT22;54387;53.526;49.300;2023-04-03T13:25:20;25.10;17.00
67557;DHT22;54387;53.526;49.300;2023-04-03T13:27:46;24.90;17.10
67557;DHT22;54387;53.526;49.300;2023-04-03T13:30:20;24.80;17.20
67557;DHT22;54387;53.526;49.300;2023-04-03T13:32:47;24.60;17.30
67557;DHT22;54387;53.526;49.300;2023-04-03T13:38:04;24.60;17.40
67557;DHT22;54387;53.526;49.300;2023-04-03T13:40:31;24.60;17.50
67557;DHT22;54387;53.526;49.300;2023-04-03T13:43:14;24.60;17.40
67557;DHT22;54387;53.526;49.300;2023-04-03T13:48:22;24.40;17.30
67557;DHT22;54387;53.526;49.300;2023-04-03T13:50:53;24.10;17.30
67557;DHT22;54387;53.526;49.300;2023-04-03T13:53:20;23.70;17.20
67557;DHT22;54387;53.526;49.300;2023-04-03T13:55:58;23.30;17.50
67557;DHT22;54387;53.526;49.300;2023-04-03T13:58:25;22.90;17.60
67557;DHT22;54387;53.526;49.300;2023-04-03T14:05:51;22.10;18.10
67557;DHT22;54387;53.526;49.300;2023-04-03T14:08:18;21.80;18.20
67557;DHT22;54387;53.526;49.300;2023-04-03T14:10:44;21.60;18.40
67557;DHT22;54387;53.526;49.300;2023-04-03T14:13:12;21.30;18.40
67557;DHT22;54387;53.526;49.300;2023-04-03T14:15:39;21.20;18.70
67557;DHT22;54387;53.526;49.300;2023-04-03T14:18:06;21.10;18.60
67557;DHT22;54387;53.526;49.300;2023-04-03T14:20:32;20.90;18.50
67557;DHT22;54387;53.526;49.300;2023-04-03T14:22:58;20.80;18.70
67557;DHT22;54387;53.526;49.300;2023-04-03T14:25:25;20.70;18.80
67557;DHT22;54387;53.526;49.300;2023-04-03T14:27:52;20.70;19.00
67557;DHT22;54387;53.526;49.300;2023-04-03T14:30:24;20.70;19.00
67557;DHT22;54387;53.526;49.300;2023-04-03T14:32:50;20.60;19.00
67557;DHT22;54387;53.526;49.300;2023-04-03T14:35:17;20.50;19.10
67557;DHT22;54387;53.526;49.300;2023-04-03T14:37:44;20.40;19.30
67557;DHT22;54387;53.526;49.300;2023-04-03T14:40:14;20.20;19.40
67557;DHT22;54387;53.526;49.300;2023-04-03T14:42:41;20.10;19.50
67557;DHT22;54387;53.526;49.300;2023-04-03T14:45:09;20.00;19.60
67557;DHT22;54387;53.526;49.300;2023-04-03T14:47:37;19.80;19.70
67557;DHT22;54387;53.526;49.300;2023-04-03T14:50:06;19.60;19.70
67557;DHT22;54387;53.526;49.300;2023-04-03T14:52:35;19.30;19.80
67557;DHT22;54387;53.526;49.300;2023-04-03T14:55:02;19.00;19.90
67557;DHT22;54387;53.526;49.300;2023-04-03T14:57:29;18.70;20.00
67557;DHT22;54387;53.526;49.300;2023-04-03T14:59:56;18.40;20.20
67557;DHT22;54387;53.526;49.300;2023-04-03T15:02:36;18.10;20.20
67557;DHT22;54387;53.526;49.300;2023-04-03T15:05:04;17.80;20.30
67557;DHT22;54387;53.526;49.300;2023-04-03T15:07:32;17.40;20.40
67557;DHT22;54387;53.526;49.300;2023-04-03T15:10:02;17.10;20.60
67557;DHT22;54387;53.526;49.300;2023-04-03T15:12:28;16.80;20.70
67557;DHT22;54387;53.526;49.300;2023-04-03T15:14:55;16.50;20.70
67557;DHT22;54387;53.526;49.300;2023-04-03T15:17:21;16.30;20.90
67557;DHT22;54387;53.526;49.300;2023-04-03T15:19:48;16.00;20.90
67557;DHT22;54387;53.526;49.300;2023-04-03T15:22:15;15.70;21.00
67557;DHT22;54387;53.526;49.300;2023-04-03T15:24:42;15.50;21.20
67557;DHT22;54387;53.526;49.300;2023-04-03T15:27:14;15.30;21.30
67557;DHT22;54387;53.526;49.300;2023-04-03T15:29:41;15.00;21.30
67557;DHT22;54387;53.526;49.300;2023-04-03T15:32:08;14.80;21.50
67557;DHT22;54387;53.526;49.300;2023-04-03T15:34:35;14.60;21.50
67557;DHT22;54387;53.526;49.300;2023-04-03T15:37:01;14.40;21.70
67557;DHT22;54387;53.526;49.300;2023-04-03T15:39:27;14.20;21.80
67557;DHT22;54387;53.526;49.300;2023-04-03T15:41:54;14.00;21.80
67557;DHT22;54387;53.526;49.300;2023-04-03T15:44:20;13.80;21.90
67557;DHT22;54387;53.526;49.300;2023-04-03T15:46:47;13.70;22.00
67557;DHT22;54387;53.526;49.300;2023-04-03T15:49:14;13.50;22.10
67557;DHT22;54387;53.526;49.300;2023-04-03T15:51:41;13.40;22.20
67557;DHT22;54387;53.526;49.300;2023-04-03T15:54:08;13.20;22.20
67557;DHT22;54387;53.526;49.300;2023-04-03T15:56:34;13.10;22.30
67557;DHT22;54387;53.526;49.300;2023-04-03T15:59:00;13.00;22.50
67557;DHT22;54387;53.526;49.300;2023-04-03T16:01:27;12.80;22.60
67557;DHT22;54387;53.526;49.300;2023-04-03T16:03:54;12.70;22.70
67557;DHT22;54387;53.526;49.300;2023-04-03T16:06:20;12.60;22.80
67557;DHT22;54387;53.526;49.300;2023-04-03T16:08:47;12.50;23.00
67557;DHT22;54387;53.526;49.300;2023-04-03T16:11:13;12.40;23.10
67557;DHT22;54387;53.526;49.300;2023-04-03T16:13:40;12.30;23.10
67557;DHT22;54387;53.526;49.300;2023-04-03T16:16:06;12.20;23.30
67557;DHT22;54387;53.526;49.300;2023-04-03T16:18:33;12.20;23.30
67557;DHT22;54387;53.526;49.300;2023-04-03T16:21:00;12.10;23.60
67557;DHT22;54387;53.526;49.300;2023-04-03T16:23:26;12.00;23.50
67557;DHT22;54387;53.526;49.300;2023-04-03T16:25:52;12.00;23.70
67557;DHT22;54387;53.526;49.300;2023-04-03T16:28:18;11.90;23.70
67557;DHT22;54387;53.526;49.300;2023-04-03T16:30:45;11.80;23.90
67557;DHT22;54387;53.526;49.300;2023-04-03T16:33:12;11.80;24.00
67557;DHT22;54387;53.526;49.300;2023-04-03T16:35:39;11.70;24.00
67557;DHT22;54387;53.526;49.300;2023-04-03T16:38:07;11.60;24.10
67557;DHT22;54387;53.526;49.300;2023-04-03T16:40:34;11.60;24.40
67557;DHT22;54387;53.526;49.300;2023-04-03T16:43:01;11.50;24.40
67557;DHT22;54387;53.526;49.300;2023-04-03T16:45:27;11.50;24.50
67557;DHT22;54387;53.526;49.300;2023-04-03T16:47:53;11.40;24.60
67557;DHT22;54387;53.526;49.300;2023-04-03T16:50:20;11.40;24.80
67557;DHT22;54387;53.526;49.300;2023-04-03T16:52:46;11.30;25.30
67557;DHT22;54387;53.526;49.300;2023-04-03T16:55:12;11.20;25.20